createdAt,value
2019-01-13T00:09:50.418Z,3.98
2019-01-13T00:15:01.758Z,3.53
2019-01-13T00:19:49.532Z,3.92
2019-01-13T00:25:09.722Z,4.16
2019-01-13T00:30:10.222Z,3.44
2019-01-13T00:35:10.218Z,3.98
2019-01-13T00:45:15.331Z,3.03
2019-01-13T00:50:15.661Z,3.01
2019-01-13T00:55:16.373Z,2.92
2019-01-13T01:00:03.989Z,3.84
2019-01-13T01:05:25.156Z,4.04
2019-01-13T01:10:25.451Z,3.54
2019-01-13T01:15:25.942Z,3.75
2019-01-13T01:20:26.298Z,4.76
2019-01-13T01:30:33.466Z,4.66
2019-01-13T01:45:22.891Z,3.49
2019-01-13T01:50:43.178Z,3.10
2019-01-13T01:55:44.335Z,3.18
2019-01-13T02:05:46.387Z,2.63
2019-01-13T02:20:42.267Z,2.44
2019-01-13T02:26:03.514Z,2.30
2019-01-13T02:31:03.807Z,2.24
2019-01-13T02:35:51.282Z,2.59
2019-01-13T02:40:58.725Z,2.86
2019-01-13T02:46:19.876Z,2.27
2019-01-13T02:51:07.276Z,2.28
2019-01-13T02:56:27.375Z,2.91
2019-01-13T03:01:15.696Z,2.83
2019-01-13T03:06:35.797Z,2.84
2019-01-13T03:11:36.155Z,2.42
2019-01-13T03:16:24.142Z,2.61
2019-01-13T03:21:45.381Z,2.56
2019-01-13T03:26:45.363Z,2.79
2019-01-13T03:31:46.602Z,2.82
2019-01-13T03:36:47.687Z,3.58
2019-01-13T03:41:47.986Z,3.63
2019-01-13T03:46:48.012Z,3.02
2019-01-13T03:51:36.453Z,2.83
2019-01-13T03:56:56.676Z,2.82
2019-01-13T04:07:00.797Z,2.86
2019-01-13T04:12:01.047Z,3.12
2019-01-13T04:22:04.924Z,2.84
2019-01-13T04:26:52.006Z,3.13
2019-01-13T04:32:00.256Z,2.81
2019-01-13T04:37:21.236Z,3.37
2019-01-13T04:42:09.589Z,2.62
2019-01-13T04:47:30.694Z,2.63
2019-01-13T04:52:31.222Z,3.25
2019-01-13T04:57:18.492Z,3.78
2019-01-13T05:02:38.603Z,2.96
2019-01-13T05:07:26.732Z,3.23
2019-01-13T05:12:48.432Z,2.83
2019-01-13T05:17:49.379Z,2.23
2019-01-13T05:22:50.711Z,2.80
2019-01-13T05:27:37.834Z,2.99
2019-01-13T05:37:59.739Z,2.48
2019-01-13T05:43:00.010Z,1.89
2019-01-13T05:48:00.200Z,2.87
2019-01-13T05:53:00.261Z,2.07
2019-01-13T05:58:01.511Z,2.36
2019-01-13T06:03:02.001Z,1.91
2019-01-13T06:08:02.168Z,2.34
2019-01-13T06:13:03.342Z,2.13
2019-01-13T06:23:07.360Z,2.41
2019-01-13T06:27:54.464Z,2.31
2019-01-13T06:33:15.797Z,3.32
2019-01-13T06:38:15.794Z,2.75
2019-01-13T06:43:04.063Z,2.97
2019-01-13T06:53:17.335Z,2.68
2019-01-13T07:03:32.297Z,3.29
2019-01-13T07:08:32.311Z,3.16
2019-01-13T07:13:20.694Z,2.75
2019-01-13T07:23:32.810Z,3.22
2019-01-13T07:28:52.900Z,3.98
2019-01-13T07:33:40.253Z,2.69
2019-01-13T07:38:47.551Z,2.71
2019-01-13T07:44:07.926Z,2.25
2019-01-13T07:49:09.025Z,2.98
2019-01-13T07:54:09.346Z,2.82
2019-01-13T07:58:56.615Z,3.00
2019-01-13T08:04:16.703Z,2.55
2019-01-13T08:09:17.825Z,2.65
2019-01-13T08:14:17.959Z,3.60
2019-01-13T08:19:06.186Z,3.37
2019-01-13T08:24:26.553Z,3.23
2019-01-13T08:29:26.694Z,3.00
2019-01-13T08:39:14.876Z,2.86
2019-01-13T08:44:22.248Z,3.28
2019-01-13T08:49:42.270Z,2.41
2019-01-13T08:54:43.484Z,3.78
2019-01-13T08:59:43.626Z,2.81
2019-01-13T09:04:31.006Z,3.16
2019-01-13T09:09:39.361Z,2.75
2019-01-13T09:14:59.642Z,2.73
2019-01-13T09:19:59.779Z,3.27
2019-01-13T09:25:00.035Z,2.87
2019-01-13T09:30:00.324Z,2.65
2019-01-13T09:44:55.147Z,2.85
2019-01-13T09:50:16.243Z,2.72
2019-01-13T10:00:05.877Z,2.60
2019-01-13T10:10:18.151Z,3.02
2019-01-13T10:20:41.987Z,2.65
2019-01-13T10:30:48.426Z,2.95
2019-01-13T10:40:40.068Z,3.41
2019-01-13T10:50:51.410Z,2.67
2019-01-13T10:55:59.106Z,2.86
2019-01-13T11:06:23.088Z,3.01
2019-01-13T11:11:23.261Z,2.68
2019-01-13T11:16:23.449Z,2.31
2019-01-13T11:21:11.589Z,2.48
2019-01-13T11:26:20.112Z,2.54
2019-01-13T11:31:40.139Z,2.51
2019-01-13T11:36:28.399Z,2.62
2019-01-13T11:41:36.597Z,2.48
2019-01-13T11:46:44.088Z,1.95
2019-01-13T11:52:05.175Z,1.84
2019-01-13T11:56:52.507Z,2.62
2019-01-13T12:02:02.362Z,2.75
2019-01-13T12:07:22.741Z,2.84
2019-01-13T12:17:13.689Z,2.49
2019-01-13T12:27:21.871Z,1.86
2019-01-13T12:32:29.105Z,1.50
2019-01-13T12:37:37.331Z,2.29
2019-01-13T12:42:45.562Z,2.21
2019-01-13T12:48:05.933Z,1.66
2019-01-13T12:52:53.193Z,2.06
2019-01-13T12:58:00.513Z,2.28
2019-01-13T13:03:21.332Z,1.64
2019-01-13T13:08:22.655Z,1.37
2019-01-13T13:13:09.919Z,1.39
2019-01-13T13:18:17.191Z,1.53
2019-01-13T13:23:25.374Z,1.28
2019-01-13T13:28:32.670Z,2.26
2019-01-13T13:33:53.620Z,1.57
2019-01-13T13:38:54.891Z,2.52
2019-01-13T13:43:42.125Z,1.19
2019-01-13T13:48:49.517Z,1.62
2019-01-13T13:53:56.710Z,1.51
2019-01-13T13:59:17.902Z,1.51
2019-01-13T14:04:05.035Z,1.22
2019-01-13T14:09:13.326Z,1.39
2019-01-13T14:14:33.310Z,1.34
2019-01-13T14:19:21.829Z,1.33
2019-01-13T14:24:28.933Z,1.58
2019-01-13T14:29:37.562Z,1.79
2019-01-13T14:34:57.516Z,1.40
2019-01-13T14:39:48.850Z,1.62
2019-01-13T14:44:53.064Z,1.56
2019-01-13T14:50:01.403Z,1.54
2019-01-13T14:55:17.335Z,1.78
2019-01-13T15:00:27.236Z,1.23
2019-01-13T15:06:20.162Z,1.64
2019-01-13T15:11:41.341Z,2.01
2019-01-13T15:16:28.408Z,2.08
2019-01-13T15:21:49.728Z,2.15
2019-01-13T15:26:37.817Z,1.58
2019-01-13T15:31:46.150Z,1.86
2019-01-13T15:36:53.295Z,2.17
2019-01-13T15:47:02.610Z,2.79
2019-01-13T15:52:22.893Z,2.46
2019-01-13T15:57:23.087Z,3.07
2019-01-13T16:02:10.228Z,2.75
2019-01-13T16:07:18.522Z,3.22
2019-01-13T16:12:26.004Z,2.95
2019-01-13T16:17:45.954Z,3.50
2019-01-13T16:22:47.426Z,3.94
2019-01-13T16:27:47.534Z,3.35
2019-01-13T16:32:34.801Z,3.70
2019-01-13T16:37:41.900Z,3.29
2019-01-13T16:43:03.080Z,3.06
2019-01-13T16:48:04.124Z,3.89
2019-01-13T16:52:51.589Z,3.46
2019-01-13T17:03:13.565Z,4.31
2019-01-13T17:08:13.722Z,3.53
2019-01-13T17:13:01.065Z,4.20
2019-01-13T17:18:08.367Z,3.81
2019-01-13T17:23:15.612Z,4.18
2019-01-13T17:28:36.667Z,3.64
2019-01-13T17:34:35.818Z,4.03
2019-01-13T17:39:37.715Z,3.33
2019-01-13T17:44:46.020Z,3.17
2019-01-13T17:49:53.118Z,3.74
2019-01-13T17:55:14.558Z,4.36
2019-01-13T18:00:01.779Z,3.50
2019-01-13T18:05:08.963Z,2.65
2019-01-13T18:10:30.089Z,3.28
2019-01-13T18:15:17.353Z,4.96
2019-01-13T18:20:25.578Z,3.19
2019-01-13T18:25:33.094Z,3.23
2019-01-13T18:30:41.179Z,3.06
2019-01-13T18:35:48.627Z,3.13
2019-01-13T18:40:55.886Z,3.55
2019-01-13T18:46:03.307Z,3.72
2019-01-13T18:51:10.546Z,3.53
2019-01-13T18:56:18.604Z,3.34
2019-01-13T19:01:26.786Z,2.93
2019-01-13T19:06:34.311Z,3.26
2019-01-13T19:11:41.602Z,3.05
2019-01-13T19:17:01.884Z,3.98
2019-01-13T19:21:49.116Z,3.61
2019-01-13T19:27:09.367Z,3.95
2019-01-13T19:32:09.354Z,3.65
2019-01-13T19:37:10.908Z,4.03
2019-01-13T19:41:58.431Z,3.21
2019-01-13T19:47:06.026Z,3.19
2019-01-13T19:57:14.242Z,3.81
2019-01-13T20:02:34.423Z,3.13
2019-01-13T20:07:22.026Z,3.25
2019-01-13T20:12:29.141Z,2.69
2019-01-13T20:17:50.448Z,3.48
2019-01-13T20:22:50.607Z,3.31
2019-01-13T20:27:50.738Z,2.89
2019-01-13T20:32:38.923Z,3.33
2019-01-13T20:38:00.318Z,3.42
2019-01-13T20:42:48.568Z,3.37
2019-01-13T20:48:08.721Z,3.38
2019-01-13T20:53:10.794Z,3.76
2019-01-13T20:58:13.603Z,3.32
2019-01-13T21:03:01.801Z,3.35
2019-01-13T21:08:22.527Z,3.36
2019-01-13T21:13:09.736Z,3.02
2019-01-13T21:18:30.055Z,3.18
2019-01-13T21:23:19.716Z,3.20
2019-01-13T21:28:40.230Z,3.93
2019-01-13T21:33:40.364Z,4.23
2019-01-13T21:38:40.534Z,3.77
2019-01-13T21:43:27.843Z,3.87
2019-01-13T21:48:47.855Z,4.01
2019-01-13T21:53:36.884Z,3.55
2019-01-13T21:58:57.335Z,3.61
2019-01-13T22:03:58.249Z,3.25
2019-01-13T22:09:00.479Z,3.21
2019-01-13T22:14:01.163Z,3.66
2019-01-13T22:18:48.395Z,3.70
2019-01-13T22:24:09.016Z,3.46
2019-01-13T22:28:57.993Z,4.63
2019-01-13T22:34:19.124Z,3.54
2019-01-13T22:39:07.695Z,4.39
2019-01-13T22:44:26.617Z,4.23
2019-01-13T22:49:26.791Z,3.93
2019-01-13T22:54:26.809Z,3.73
2019-01-13T22:59:28.014Z,3.37
2019-01-13T23:04:29.130Z,3.71
2019-01-13T23:09:29.239Z,3.48
2019-01-13T23:14:30.338Z,3.40
2019-01-13T23:19:30.509Z,4.24
2019-01-13T23:24:31.623Z,3.47
2019-01-13T23:29:31.868Z,3.46
2019-01-13T23:34:32.010Z,3.27
2019-01-13T23:39:32.384Z,3.45
2019-01-13T23:44:32.383Z,4.12
2019-01-13T23:49:33.555Z,3.98
2019-01-13T23:54:33.693Z,2.99
2019-01-13T23:59:34.191Z,3.39
